createdAt,value
2023-04-15T00:01:03.826Z,3.30
2023-04-15T00:03:31.025Z,3.63
2023-04-15T00:06:01.624Z,3.65
2023-04-15T00:08:29.975Z,3.55
2023-04-15T00:10:59.488Z,3.75
2023-04-15T00:13:26.661Z,3.85
2023-04-15T00:15:53.723Z,3.97
2023-04-15T00:18:20.974Z,3.03
2023-04-15T00:20:48.138Z,3.65
2023-04-15T00:23:15.310Z,3.33
2023-04-15T00:25:42.461Z,3.75
2023-04-15T00:28:09.948Z,4.25
2023-04-15T00:30:37.399Z,4.28
2023-04-15T00:33:04.582Z,3.72
2023-04-15T00:35:34.718Z,3.75
2023-04-15T00:38:01.804Z,3.35
2023-04-15T00:40:28.993Z,3.65
2023-04-15T00:42:56.108Z,3.50
2023-04-15T00:45:24.096Z,3.00
2023-04-15T00:47:51.980Z,3.70
2023-04-15T00:50:19.233Z,3.58
2023-04-15T00:52:46.382Z,4.00
2023-04-15T00:55:13.888Z,3.72
2023-04-15T00:57:41.594Z,4.05
2023-04-15T01:00:09.768Z,4.35
2023-04-15T01:02:37.234Z,4.47
2023-04-15T01:05:04.852Z,3.83
2023-04-15T01:07:32.736Z,5.07
2023-04-15T01:10:00.234Z,4.38
2023-04-15T01:12:27.962Z,3.80
2023-04-15T01:14:56.648Z,4.05
2023-04-15T01:17:25.224Z,3.67
2023-04-15T01:19:52.625Z,3.60
2023-04-15T01:22:19.804Z,3.63
2023-04-15T01:25:02.706Z,3.92
2023-04-15T01:29:57.527Z,3.50
2023-04-15T01:32:24.768Z,3.60
2023-04-15T01:34:52.127Z,3.95
2023-04-15T01:37:19.353Z,3.63
2023-04-15T01:39:46.439Z,3.50
2023-04-15T01:42:13.592Z,3.35
2023-04-15T01:44:40.725Z,4.07
2023-04-15T01:47:08.486Z,4.15
2023-04-15T01:49:36.081Z,4.47
2023-04-15T01:52:03.236Z,3.88
2023-04-15T01:54:30.727Z,3.30
2023-04-15T01:56:57.888Z,3.65
2023-04-15T01:59:24.991Z,3.55
2023-04-15T02:01:52.832Z,3.35
2023-04-15T02:04:19.961Z,3.95
2023-04-15T02:06:47.108Z,3.50
2023-04-15T02:09:14.208Z,3.22
2023-04-15T02:11:41.353Z,3.10
2023-04-15T02:14:08.518Z,3.42
2023-04-15T02:16:35.710Z,3.60
2023-04-15T02:19:03.875Z,3.65
2023-04-15T02:21:31.155Z,3.38
2023-04-15T02:23:58.355Z,3.63
2023-04-15T02:26:25.478Z,3.95
2023-04-15T02:28:52.736Z,3.58
2023-04-15T02:31:21.261Z,3.30
2023-04-15T02:33:48.418Z,4.15
2023-04-15T02:36:15.670Z,4.47
2023-04-15T02:38:43.378Z,3.85
2023-04-15T02:41:10.997Z,4.18
2023-04-15T02:43:40.000Z,3.88
2023-04-15T02:46:07.247Z,4.50
2023-04-15T02:48:34.478Z,4.15
2023-04-15T02:51:14.531Z,4.13
2023-04-15T02:53:41.718Z,4.10
2023-04-15T02:56:09.054Z,4.55
2023-04-15T02:58:36.548Z,4.43
2023-04-15T03:01:03.832Z,4.20
2023-04-15T03:03:31.523Z,4.80
2023-04-15T03:05:58.664Z,4.68
2023-04-15T03:08:26.133Z,5.53
2023-04-15T03:10:54.369Z,5.50
2023-04-15T03:13:21.546Z,5.57
2023-04-15T03:15:48.891Z,9.13
2023-04-15T03:18:16.673Z,18.92
2023-04-15T03:20:43.841Z,7.40
2023-04-15T03:23:11.079Z,8.32
2023-04-15T03:25:38.253Z,12.27
2023-04-15T03:28:05.523Z,7.63
2023-04-15T03:30:32.771Z,6.13
2023-04-15T03:32:59.936Z,5.63
2023-04-15T03:35:27.151Z,4.65
2023-04-15T03:37:54.276Z,5.20
2023-04-15T03:40:22.347Z,5.63
2023-04-15T03:42:49.530Z,6.15
2023-04-15T03:45:16.748Z,6.30
2023-04-15T03:47:43.979Z,6.72
2023-04-15T03:50:11.577Z,6.63
2023-04-15T03:52:38.901Z,5.45
2023-04-15T03:55:06.183Z,5.50
2023-04-15T03:57:38.015Z,6.32
2023-04-15T04:00:12.055Z,5.82
2023-04-15T04:02:39.579Z,5.15
2023-04-15T04:05:07.049Z,4.95
2023-04-15T04:07:34.197Z,5.25
2023-04-15T04:10:01.656Z,6.05
2023-04-15T04:12:28.807Z,5.93
2023-04-15T04:14:56.384Z,6.03
2023-04-15T04:17:23.645Z,5.80
2023-04-15T04:19:50.973Z,5.32
2023-04-15T04:22:18.180Z,5.38
2023-04-15T04:24:45.284Z,5.70
2023-04-15T04:27:12.447Z,6.50
2023-04-15T04:29:39.585Z,6.28
2023-04-15T04:32:06.862Z,5.90
2023-04-15T04:34:34.083Z,6.20
2023-04-15T04:37:01.333Z,6.22
2023-04-15T04:39:28.697Z,7.85
2023-04-15T04:41:56.089Z,7.35
2023-04-15T04:44:23.232Z,6.72
2023-04-15T04:46:50.626Z,5.88
2023-04-15T04:49:17.721Z,6.80
2023-04-15T04:51:45.277Z,6.40
2023-04-15T04:54:12.361Z,6.28
2023-04-15T04:56:39.822Z,6.10
2023-04-15T04:59:07.772Z,6.20
2023-04-15T05:01:35.048Z,6.30
2023-04-15T05:04:02.253Z,6.85
2023-04-15T05:06:30.509Z,6.85
2023-04-15T05:08:58.057Z,5.88
2023-04-15T05:11:25.456Z,6.10
2023-04-15T05:13:52.605Z,5.82
2023-04-15T05:16:20.644Z,5.85
2023-04-15T05:18:47.830Z,5.88
2023-04-15T05:21:15.190Z,5.80
2023-04-15T05:23:42.464Z,5.28
2023-04-15T05:26:09.524Z,4.50
2023-04-15T05:28:36.944Z,5.10
2023-04-15T05:31:04.259Z,5.03
2023-04-15T05:33:31.443Z,4.40
2023-04-15T05:35:58.542Z,4.80
2023-04-15T05:38:26.155Z,5.22
2023-04-15T05:40:53.276Z,4.85
2023-04-15T05:43:20.734Z,5.65
2023-04-15T05:45:47.947Z,4.80
2023-04-15T05:48:15.152Z,5.20
2023-04-15T05:50:42.771Z,4.88
2023-04-15T05:53:10.555Z,4.80
2023-04-15T05:55:37.628Z,3.80
2023-04-15T05:58:04.800Z,4.13
2023-04-15T06:00:32.242Z,4.47
2023-04-15T06:02:59.892Z,4.22
2023-04-15T06:05:27.773Z,3.88
2023-04-15T06:07:54.902Z,4.28
2023-04-15T06:10:22.055Z,3.85
2023-04-15T06:12:49.220Z,10.20
2023-04-15T06:15:17.125Z,6.70
2023-04-15T06:17:44.364Z,6.40
2023-04-15T06:20:12.028Z,4.93
2023-04-15T06:22:39.221Z,9.02
2023-04-15T06:25:08.050Z,5.35
2023-04-15T06:27:35.458Z,7.97
2023-04-15T06:30:02.557Z,2.78
2023-04-15T06:32:29.719Z,2.95
2023-04-15T06:34:56.950Z,2.45
2023-04-15T06:37:24.114Z,2.85
2023-04-15T06:39:51.673Z,2.63
2023-04-15T06:42:18.938Z,2.63
2023-04-15T06:44:46.030Z,2.22
2023-04-15T06:47:14.721Z,2.40
2023-04-15T06:49:43.174Z,2.80
2023-04-15T06:52:11.526Z,2.60
2023-04-15T06:54:38.651Z,2.50
2023-04-15T06:57:05.824Z,2.63
2023-04-15T06:59:32.893Z,2.30
2023-04-15T07:02:00.159Z,2.20
2023-04-15T07:04:27.825Z,2.10
2023-04-15T07:06:58.344Z,2.20
2023-04-15T07:09:25.714Z,2.35
2023-04-15T07:11:52.907Z,2.25
2023-04-15T07:14:20.066Z,2.20
2023-04-15T07:16:47.310Z,3.95
2023-04-15T07:19:14.483Z,2.75
2023-04-15T07:21:42.353Z,2.13
2023-04-15T07:24:10.554Z,2.08
2023-04-15T07:26:37.636Z,2.10
2023-04-15T07:29:04.787Z,2.25
2023-04-15T07:31:31.908Z,2.47
2023-04-15T07:33:59.813Z,2.40
2023-04-15T07:36:26.919Z,1.85
2023-04-15T07:38:55.270Z,2.72
2023-04-15T07:41:22.525Z,3.20
2023-04-15T07:43:49.859Z,3.20
2023-04-15T07:46:17.020Z,2.50
2023-04-15T07:48:44.200Z,1.77
2023-04-15T07:51:11.330Z,1.75
2023-04-15T07:53:38.617Z,2.92
2023-04-15T07:56:05.986Z,1.73
2023-04-15T07:58:33.115Z,3.03
2023-04-15T08:01:00.243Z,1.80
2023-04-15T08:03:27.653Z,2.22
2023-04-15T08:05:54.900Z,1.67
2023-04-15T08:08:22.391Z,2.03
2023-04-15T08:10:51.387Z,2.08
2023-04-15T08:13:19.773Z,1.98
2023-04-15T08:15:46.936Z,2.08
2023-04-15T08:18:14.051Z,2.22
2023-04-15T08:20:41.688Z,3.03
2023-04-15T08:23:08.899Z,2.40
2023-04-15T08:25:36.172Z,1.80
2023-04-15T08:28:07.157Z,2.42
2023-04-15T08:30:34.560Z,2.97
2023-04-15T08:33:01.865Z,2.00
2023-04-15T08:35:28.988Z,2.03
2023-04-15T08:37:56.636Z,2.40
2023-04-15T08:40:27.328Z,2.20
2023-04-15T08:42:55.456Z,1.77
2023-04-15T08:45:22.958Z,2.13
2023-04-15T08:47:53.300Z,2.28
2023-04-15T08:50:21.936Z,2.38
2023-04-15T08:52:49.110Z,3.67
2023-04-15T08:55:16.696Z,2.10
2023-04-15T08:57:43.867Z,2.03
2023-04-15T09:00:12.450Z,1.90
2023-04-15T09:02:40.024Z,1.90
2023-04-15T09:05:07.837Z,1.70
2023-04-15T09:07:36.558Z,1.90
2023-04-15T09:10:04.601Z,2.40
2023-04-15T09:12:32.131Z,2.00
2023-04-15T09:14:59.850Z,1.95
2023-04-15T09:17:27.838Z,2.25
2023-04-15T09:20:11.579Z,1.85
2023-04-15T09:22:39.461Z,2.00
2023-04-15T09:25:29.518Z,2.50
2023-04-15T09:27:57.947Z,2.13
2023-04-15T09:30:25.288Z,2.25
2023-04-15T09:32:54.000Z,2.00
2023-04-15T09:35:22.289Z,2.20
2023-04-15T09:37:53.278Z,2.30
2023-04-15T09:40:35.908Z,1.88
2023-04-15T09:43:03.491Z,2.35
2023-04-15T09:45:30.695Z,1.92
2023-04-15T09:47:59.225Z,2.40
2023-04-15T09:50:30.635Z,2.10
2023-04-15T09:52:57.979Z,2.28
2023-04-15T09:55:25.205Z,2.20
2023-04-15T09:57:52.311Z,2.25
2023-04-15T10:00:19.472Z,2.47
2023-04-15T10:02:48.764Z,2.35
2023-04-15T10:05:17.920Z,2.85
2023-04-15T10:07:45.780Z,4.43
2023-04-15T10:10:13.767Z,4.40
2023-04-15T10:12:41.801Z,4.97
2023-04-15T10:15:12.051Z,3.10
2023-04-15T10:17:39.560Z,3.05
2023-04-15T10:20:07.161Z,3.33
2023-04-15T10:22:34.427Z,4.75
2023-04-15T10:25:04.270Z,3.35
2023-04-15T10:27:31.967Z,3.75
2023-04-15T10:30:02.313Z,4.50
2023-04-15T10:32:30.090Z,4.90
2023-04-15T10:34:58.190Z,5.55
2023-04-15T10:37:35.615Z,4.45
2023-04-15T10:40:22.723Z,4.45
2023-04-15T10:42:49.848Z,4.47
2023-04-15T10:45:18.010Z,3.95
2023-04-15T10:47:45.277Z,4.05
2023-04-15T10:50:12.729Z,3.97
2023-04-15T10:52:43.049Z,3.38
2023-04-15T10:55:19.385Z,3.20
2023-04-15T10:57:46.526Z,4.10
2023-04-15T11:00:17.500Z,3.80
2023-04-15T11:02:44.938Z,3.58
2023-04-15T11:05:12.605Z,4.10
2023-04-15T11:07:41.292Z,3.88
2023-04-15T11:10:14.448Z,3.25
2023-04-15T11:12:42.312Z,3.53
2023-04-15T11:15:28.765Z,3.78
2023-04-15T11:17:57.029Z,3.83
2023-04-15T11:20:24.568Z,4.07
2023-04-15T11:22:52.631Z,4.32
2023-04-15T11:25:37.611Z,4.40
2023-04-15T11:28:05.792Z,4.28
2023-04-15T11:30:34.704Z,4.53
2023-04-15T11:33:02.650Z,4.53
2023-04-15T11:35:30.470Z,4.30
2023-04-15T11:37:58.394Z,3.75
2023-04-15T11:40:25.663Z,3.63
2023-04-15T11:43:11.184Z,3.50
2023-04-15T11:45:39.166Z,3.90
2023-04-15T11:48:07.764Z,3.97
2023-04-15T11:50:35.379Z,3.95
2023-04-15T11:53:06.249Z,3.70
2023-04-15T11:55:51.675Z,3.50
2023-04-15T11:58:26.557Z,3.42
2023-04-15T12:00:54.772Z,3.92
2023-04-15T12:03:23.848Z,3.30
2023-04-15T12:06:11.219Z,3.72
2023-04-15T12:08:56.392Z,3.40
2023-04-15T12:11:32.192Z,3.60
2023-04-15T12:14:01.000Z,3.40
2023-04-15T12:16:29.007Z,3.53
2023-04-15T12:18:59.989Z,4.10
2023-04-15T12:21:27.871Z,3.38
2023-04-15T12:23:58.868Z,3.90
2023-04-15T12:26:29.002Z,3.08
2023-04-15T12:29:03.003Z,2.60
2023-04-15T12:31:30.520Z,2.70
2023-04-15T12:33:58.594Z,2.78
2023-04-15T12:36:26.031Z,2.92
2023-04-15T12:38:53.186Z,3.85
2023-04-15T12:41:21.911Z,3.95
2023-04-15T12:43:49.038Z,3.20
2023-04-15T12:46:16.237Z,3.88
2023-04-15T12:48:43.578Z,3.05
2023-04-15T12:51:10.943Z,3.05
2023-04-15T12:53:38.158Z,2.78
2023-04-15T12:56:05.389Z,3.15
2023-04-15T12:58:33.302Z,2.10
2023-04-15T13:01:00.593Z,2.72
2023-04-15T13:03:27.815Z,2.60
2023-04-15T13:05:55.082Z,2.00
2023-04-15T13:08:22.272Z,1.90
2023-04-15T13:10:49.386Z,1.80
2023-04-15T13:13:16.732Z,1.80
2023-04-15T13:15:45.885Z,2.00
2023-04-15T13:18:13.121Z,2.13
2023-04-15T13:20:40.950Z,4.68
2023-04-15T13:23:08.345Z,2.92
2023-04-15T13:25:35.462Z,1.75
2023-04-15T13:28:03.220Z,3.92
2023-04-15T13:30:31.286Z,3.60
2023-04-15T13:32:58.628Z,3.75
2023-04-15T13:35:25.873Z,3.28
2023-04-15T13:37:55.533Z,3.28
2023-04-15T13:40:22.683Z,2.60
2023-04-15T13:42:49.832Z,2.63
2023-04-15T13:45:16.964Z,8.02
2023-04-15T13:47:44.114Z,2.20
2023-04-15T13:50:11.512Z,1.70
2023-04-15T13:52:38.663Z,1.40
2023-04-15T13:55:19.692Z,1.55
2023-04-15T13:57:48.526Z,2.05
2023-04-15T14:00:15.757Z,1.25
2023-04-15T14:02:43.069Z,1.60
2023-04-15T14:05:11.332Z,1.70
2023-04-15T14:07:38.582Z,1.60
2023-04-15T14:10:05.916Z,1.48
2023-04-15T14:12:33.077Z,1.25
2023-04-15T14:15:00.297Z,0.82
2023-04-15T14:17:27.882Z,0.80
2023-04-15T14:19:55.329Z,1.42
2023-04-15T14:22:22.558Z,1.30
2023-04-15T14:24:49.799Z,1.33
2023-04-15T14:27:17.105Z,2.70
2023-04-15T14:29:44.187Z,2.20
2023-04-15T14:32:12.813Z,1.30
2023-04-15T14:34:40.713Z,1.35
2023-04-15T14:37:07.987Z,2.45
2023-04-15T14:39:35.319Z,2.30
2023-04-15T14:42:02.483Z,2.13
2023-04-15T14:44:32.366Z,1.85
2023-04-15T14:46:59.569Z,1.40
2023-04-15T14:49:26.839Z,1.50
2023-04-15T14:51:53.921Z,1.20
2023-04-15T14:54:22.459Z,1.45
2023-04-15T14:56:49.847Z,1.30
2023-04-15T14:59:17.155Z,1.20
2023-04-15T15:01:44.394Z,1.20
2023-04-15T15:04:11.856Z,1.05
2023-04-15T15:06:39.210Z,1.25
2023-04-15T15:09:06.690Z,1.65
2023-04-15T15:11:34.116Z,1.27
2023-04-15T15:14:01.249Z,1.50
2023-04-15T15:16:29.333Z,1.50
2023-04-15T15:18:56.637Z,1.40
2023-04-15T15:21:23.893Z,1.42
2023-04-15T15:23:51.089Z,1.65
2023-04-15T15:26:19.303Z,2.60
2023-04-15T15:28:46.757Z,2.10
2023-04-15T15:31:13.922Z,2.30
2023-04-15T15:33:41.071Z,1.98
2023-04-15T15:36:08.197Z,2.00
2023-04-15T15:38:35.538Z,3.17
2023-04-15T15:41:02.632Z,1.77
2023-04-15T15:43:29.805Z,3.30
2023-04-15T15:45:57.110Z,2.90
2023-04-15T15:48:24.652Z,2.22
2023-04-15T15:50:52.988Z,2.63
2023-04-15T15:53:20.979Z,1.80
2023-04-15T15:55:48.599Z,2.50
2023-04-15T15:58:16.600Z,2.30
2023-04-15T16:00:43.758Z,2.30
2023-04-15T16:03:11.054Z,3.33
2023-04-15T16:05:38.758Z,2.50
2023-04-15T16:08:06.272Z,3.05
2023-04-15T16:10:33.525Z,4.03
2023-04-15T16:13:00.846Z,3.20
2023-04-15T16:15:28.046Z,3.03
2023-04-15T16:17:55.310Z,3.00
2023-04-15T16:20:22.599Z,3.00
2023-04-15T16:22:49.826Z,3.45
2023-04-15T16:25:16.999Z,5.40
2023-04-15T16:27:57.779Z,5.28
2023-04-15T16:30:30.630Z,5.00
2023-04-15T16:32:58.059Z,17.55
2023-04-15T16:35:25.248Z,4.88
2023-04-15T16:37:52.434Z,8.73
2023-04-15T16:40:19.508Z,3.45
2023-04-15T16:42:46.752Z,3.15
2023-04-15T16:45:13.831Z,2.70
2023-04-15T16:47:41.126Z,3.50
2023-04-15T16:50:08.614Z,3.20
2023-04-15T16:52:35.819Z,3.13
2023-04-15T16:55:03.209Z,3.22
2023-04-15T16:57:42.713Z,2.90
2023-04-15T17:00:17.496Z,4.93
2023-04-15T17:02:44.884Z,3.75
2023-04-15T17:05:12.193Z,3.88
2023-04-15T17:07:39.271Z,6.70
2023-04-15T17:10:06.655Z,6.13
2023-04-15T17:12:33.794Z,4.53
2023-04-15T17:15:00.965Z,3.95
2023-04-15T17:17:28.183Z,4.03
2023-04-15T17:19:55.382Z,4.03
2023-04-15T17:22:22.552Z,3.85
2023-04-15T17:24:49.702Z,3.95
2023-04-15T17:27:16.778Z,3.80
2023-04-15T17:29:43.866Z,3.60
2023-04-15T17:32:11.242Z,4.28
2023-04-15T17:34:49.769Z,4.38
2023-04-15T17:37:18.004Z,4.15
2023-04-15T17:39:45.375Z,3.83
2023-04-15T17:42:12.602Z,3.60
2023-04-15T17:44:40.849Z,3.38
2023-04-15T17:47:08.039Z,3.42
2023-04-15T17:49:37.713Z,2.90
2023-04-15T17:52:04.914Z,2.95
2023-04-15T17:54:31.997Z,2.78
2023-04-15T17:57:00.116Z,3.08
2023-04-15T17:59:28.078Z,3.50
2023-04-15T18:01:55.391Z,3.20
2023-04-15T18:04:25.710Z,2.58
2023-04-15T18:06:53.714Z,3.35
2023-04-15T18:09:20.948Z,3.67
2023-04-15T18:11:48.929Z,2.20
2023-04-15T18:14:26.958Z,3.22
2023-04-15T18:16:58.169Z,2.67
2023-04-15T18:19:25.753Z,1.42
2023-04-15T18:21:52.965Z,2.05
2023-04-15T18:24:20.269Z,2.60
2023-04-15T18:26:48.982Z,2.72
2023-04-15T18:29:16.572Z,5.05
2023-04-15T18:31:44.020Z,2.13
2023-04-15T18:34:11.436Z,2.30
2023-04-15T18:36:38.541Z,2.40
2023-04-15T18:39:06.000Z,3.33
2023-04-15T18:41:33.309Z,3.47
2023-04-15T18:44:00.426Z,2.70
2023-04-15T18:46:28.834Z,2.90
2023-04-15T18:48:55.952Z,2.80
2023-04-15T18:51:23.089Z,2.10
2023-04-15T18:53:50.392Z,2.35
2023-04-15T18:56:17.533Z,1.83
2023-04-15T18:59:11.566Z,3.53
2023-04-15T19:01:32.568Z,1.73
2023-04-15T19:03:59.905Z,2.20
2023-04-15T19:06:27.323Z,1.83
2023-04-15T19:08:54.691Z,1.80
2023-04-15T19:11:21.972Z,2.58
2023-04-15T19:13:49.161Z,2.55
2023-04-15T19:16:16.357Z,1.83
2023-04-15T19:18:43.882Z,1.55
2023-04-15T19:21:12.103Z,1.90
2023-04-15T19:23:39.654Z,1.98
2023-04-15T19:26:08.247Z,2.50
2023-04-15T19:28:35.547Z,2.40
2023-04-15T19:31:02.816Z,2.80
2023-04-15T19:33:31.515Z,2.45
2023-04-15T19:36:02.166Z,2.40
2023-04-15T19:38:30.563Z,2.80
2023-04-15T19:40:58.224Z,2.92
2023-04-15T19:43:25.340Z,3.40
2023-04-15T19:45:54.463Z,2.25
2023-04-15T19:48:22.138Z,2.90
2023-04-15T19:50:49.319Z,3.17
2023-04-15T19:53:16.391Z,3.40
2023-04-15T19:55:43.508Z,4.25
2023-04-15T19:58:10.683Z,3.22
2023-04-15T20:00:37.837Z,3.17
2023-04-15T20:03:05.634Z,3.15
2023-04-15T20:05:33.115Z,2.75
2023-04-15T20:08:01.910Z,2.70
2023-04-15T20:10:31.093Z,2.28
2023-04-15T20:12:58.443Z,1.95
2023-04-15T20:15:25.985Z,2.00
2023-04-15T20:17:53.272Z,2.05
2023-04-15T20:20:20.445Z,2.25
2023-04-15T20:22:47.632Z,2.10
2023-04-15T20:25:14.902Z,2.20
2023-04-15T20:27:42.123Z,2.40
2023-04-15T20:30:09.473Z,2.20
2023-04-15T20:32:36.703Z,2.60
2023-04-15T20:35:04.541Z,2.58
2023-04-15T20:37:33.314Z,2.25
2023-04-15T20:40:01.017Z,2.13
2023-04-15T20:42:28.274Z,2.60
2023-04-15T20:44:55.644Z,2.90
2023-04-15T20:47:22.899Z,3.15
2023-04-15T20:49:50.184Z,2.88
2023-04-15T20:52:17.273Z,3.58
2023-04-15T20:54:44.794Z,3.20
2023-04-15T20:57:11.924Z,4.32
2023-04-15T20:59:39.019Z,3.40
2023-04-15T21:02:06.260Z,3.60
2023-04-15T21:04:33.399Z,3.50
2023-04-15T21:07:00.684Z,4.15
2023-04-15T21:09:27.919Z,4.80
2023-04-15T21:12:01.007Z,4.13
2023-04-15T21:14:28.613Z,4.15
2023-04-15T21:16:55.859Z,4.47
2023-04-15T21:19:23.017Z,4.72
2023-04-15T21:21:50.259Z,4.68
2023-04-15T21:24:17.386Z,4.60
2023-04-15T21:26:44.520Z,4.90
2023-04-15T21:29:12.096Z,5.53
2023-04-15T21:31:39.462Z,5.20
2023-04-15T21:34:06.612Z,4.65
2023-04-15T21:36:34.016Z,5.65
2023-04-15T21:39:01.226Z,5.30
2023-04-15T21:41:28.699Z,5.00
2023-04-15T21:43:55.874Z,4.47
2023-04-15T21:46:25.758Z,5.07
2023-04-15T21:49:00.713Z,5.70
2023-04-15T21:51:28.060Z,5.90
2023-04-15T21:53:55.947Z,6.25
2023-04-15T21:56:24.250Z,6.13
2023-04-15T21:58:51.621Z,6.43
2023-04-15T22:01:18.821Z,5.60
2023-04-15T22:03:46.302Z,5.72
2023-04-15T22:06:13.802Z,4.95
2023-04-15T22:08:55.183Z,5.47
2023-04-15T22:11:27.261Z,5.60
2023-04-15T22:13:55.461Z,5.50
2023-04-15T22:16:22.674Z,6.63
2023-04-15T22:18:49.903Z,6.47
2023-04-15T22:21:17.165Z,7.53
2023-04-15T22:23:47.727Z,7.30
2023-04-15T22:26:15.071Z,9.50
2023-04-15T22:28:42.237Z,8.50
2023-04-15T22:31:09.513Z,6.57
2023-04-15T22:33:36.880Z,6.50
2023-04-15T22:36:04.078Z,7.03
2023-04-15T22:38:31.260Z,6.20
2023-04-15T22:40:58.567Z,6.57
2023-04-15T22:43:27.419Z,5.85
2023-04-15T22:45:55.027Z,6.15
2023-04-15T22:48:22.387Z,6.15
2023-04-15T22:50:49.792Z,6.28
2023-04-15T22:53:20.076Z,6.35
2023-04-15T22:55:47.851Z,6.70
2023-04-15T22:58:15.515Z,6.25
2023-04-15T23:00:42.813Z,7.45
2023-04-15T23:03:10.087Z,7.40
2023-04-15T23:05:37.461Z,7.43
2023-04-15T23:08:04.614Z,7.93
2023-04-15T23:10:31.714Z,8.25
2023-04-15T23:12:58.912Z,9.55
2023-04-15T23:15:26.053Z,8.85
2023-04-15T23:17:53.203Z,8.98
2023-04-15T23:20:20.540Z,9.10
2023-04-15T23:22:47.971Z,8.15
2023-04-15T23:25:15.329Z,6.93
2023-04-15T23:27:42.484Z,8.38
2023-04-15T23:30:09.796Z,8.20
2023-04-15T23:32:36.921Z,8.10
2023-04-15T23:35:04.132Z,8.75
2023-04-15T23:37:31.686Z,8.60
2023-04-15T23:39:58.827Z,8.45
2023-04-15T23:42:26.077Z,7.47
2023-04-15T23:44:53.341Z,7.38
2023-04-15T23:47:20.678Z,7.00
2023-04-15T23:49:47.817Z,6.30
2023-04-15T23:52:15.058Z,5.60
2023-04-15T23:54:42.145Z,6.18
2023-04-15T23:57:09.350Z,6.53
2023-04-15T23:59:36.634Z,6.28
